createdAt,value
2023-03-30T00:01:24.891Z,-3.90
2023-03-30T00:03:55.586Z,-3.90
2023-03-30T00:06:23.588Z,-4.00
2023-03-30T00:08:58.596Z,-3.90
2023-03-30T00:11:27.121Z,-3.80
2023-03-30T00:13:54.658Z,-3.70
2023-03-30T00:16:22.324Z,-3.60
2023-03-30T00:18:50.741Z,-3.40
2023-03-30T00:21:21.106Z,-3.30
2023-03-30T00:23:48.500Z,-3.10
2023-03-30T00:26:16.648Z,-3.00
2023-03-30T00:28:43.888Z,-2.80
2023-03-30T00:31:11.541Z,-2.80
2023-03-30T00:33:46.311Z,-2.70
2023-03-30T00:36:14.209Z,-2.60
2023-03-30T00:38:41.537Z,-2.50
2023-03-30T00:41:09.631Z,-2.50
2023-03-30T00:44:03.007Z,-2.50
2023-03-30T00:46:32.471Z,-2.40
2023-03-30T00:49:09.292Z,-2.40
2023-03-30T00:51:39.452Z,-2.40
2023-03-30T00:54:14.533Z,-2.30
2023-03-30T00:56:41.985Z,-2.30
2023-03-30T00:59:09.407Z,-2.40
2023-03-30T01:01:39.605Z,-2.40
2023-03-30T01:04:08.789Z,-2.40
2023-03-30T01:06:40.717Z,-2.50
2023-03-30T01:09:08.833Z,-2.50
2023-03-30T01:11:36.173Z,-2.60
2023-03-30T01:14:08.319Z,-2.70
2023-03-30T01:17:08.749Z,-2.80
2023-03-30T01:20:09.623Z,-2.90
2023-03-30T01:23:27.596Z,-3.00
2023-03-30T01:26:29.775Z,-3.00
2023-03-30T01:29:09.715Z,-3.00
2023-03-30T01:32:01.324Z,-3.00
2023-03-30T01:34:48.407Z,-3.00
2023-03-30T01:49:09.402Z,-2.90
2023-03-30T01:51:43.575Z,-2.80
2023-03-30T01:54:19.292Z,-2.80
2023-03-30T01:56:55.014Z,-2.70
2023-03-30T01:59:33.629Z,-2.70
2023-03-30T02:02:04.850Z,-2.70
2023-03-30T02:04:38.996Z,-2.60
2023-03-30T02:07:14.691Z,-2.50
2023-03-30T02:09:44.109Z,-2.50
2023-03-30T02:12:13.117Z,-2.50
2023-03-30T02:14:42.046Z,-2.50
2023-03-30T02:17:20.307Z,-2.40
2023-03-30T02:19:47.801Z,-2.30
2023-03-30T02:22:17.842Z,-2.30
2023-03-30T02:24:48.473Z,-2.20
2023-03-30T02:27:15.976Z,-2.20
2023-03-30T02:29:45.319Z,-2.10
2023-03-30T02:32:21.053Z,-2.10
2023-03-30T02:35:25.759Z,-2.10
2023-03-30T02:38:25.276Z,-2.10
2023-03-30T02:41:28.676Z,-2.10
2023-03-30T02:44:34.266Z,-2.10
2023-03-30T02:47:33.390Z,-2.10
2023-03-30T02:50:03.687Z,-2.10
2023-03-30T02:52:50.648Z,-2.10
2023-03-30T02:55:29.348Z,-2.10
2023-03-30T02:58:07.609Z,-2.10
2023-03-30T03:00:56.251Z,-2.10
2023-03-30T03:03:31.901Z,-2.10
2023-03-30T03:06:02.949Z,-2.10
2023-03-30T03:08:34.801Z,-2.10
2023-03-30T03:11:02.180Z,-2.10
2023-03-30T03:13:29.465Z,-2.10
2023-03-30T03:15:57.311Z,-2.10
2023-03-30T03:18:25.464Z,-2.10
2023-03-30T03:20:52.629Z,-2.00
2023-03-30T03:23:19.839Z,-2.00
2023-03-30T03:25:48.543Z,-2.00
2023-03-30T03:28:15.814Z,-2.00
2023-03-30T03:30:45.854Z,-2.00
2023-03-30T03:33:13.084Z,-2.00
2023-03-30T03:35:40.417Z,-2.00
2023-03-30T03:38:08.177Z,-2.00
2023-03-30T03:40:35.849Z,-1.90
2023-03-30T03:43:03.059Z,-1.80
2023-03-30T03:45:30.316Z,-1.80
2023-03-30T03:47:57.685Z,-1.70
2023-03-30T03:50:25.001Z,-1.60
2023-03-30T03:52:52.213Z,-1.60
2023-03-30T03:55:19.798Z,-1.50
2023-03-30T03:57:46.921Z,-1.40
2023-03-30T04:00:16.888Z,-1.40
2023-03-30T04:02:45.172Z,-1.30
2023-03-30T04:05:12.451Z,-1.20
2023-03-30T04:07:39.697Z,-1.20
2023-03-30T04:10:07.906Z,-1.20
2023-03-30T04:12:35.099Z,-1.10
2023-03-30T04:15:02.447Z,-1.10
2023-03-30T04:17:29.744Z,-1.00
2023-03-30T04:19:56.982Z,-1.00
2023-03-30T04:22:24.569Z,-1.00
2023-03-30T04:24:52.713Z,-1.00
2023-03-30T04:27:20.055Z,-0.90
2023-03-30T04:29:47.274Z,-0.90
2023-03-30T04:32:20.853Z,-0.90
2023-03-30T04:34:48.345Z,-0.90
2023-03-30T04:37:18.417Z,-0.80
2023-03-30T04:39:45.639Z,-0.80
2023-03-30T04:42:14.485Z,-0.80
2023-03-30T04:44:41.735Z,-0.80
2023-03-30T04:47:08.951Z,-0.80
2023-03-30T04:49:36.127Z,-0.70
2023-03-30T04:52:03.434Z,-0.70
2023-03-30T04:54:33.123Z,-0.60
2023-03-30T04:57:00.564Z,-0.60
2023-03-30T04:59:27.828Z,-0.50
2023-03-30T05:01:54.953Z,-0.50
2023-03-30T05:04:22.184Z,-0.50
2023-03-30T05:06:49.920Z,-0.40
2023-03-30T05:09:18.264Z,-0.40
2023-03-30T05:11:45.776Z,-0.40
2023-03-30T05:14:12.982Z,-0.40
2023-03-30T05:16:40.341Z,-0.40
2023-03-30T05:19:07.779Z,-0.40
2023-03-30T05:21:35.318Z,-0.40
2023-03-30T05:24:02.535Z,-0.40
2023-03-30T05:26:29.858Z,-0.30
2023-03-30T05:28:57.343Z,-0.30
2023-03-30T05:31:24.636Z,-0.30
2023-03-30T05:33:52.452Z,-0.30
2023-03-30T05:36:19.698Z,-0.30
2023-03-30T05:38:47.045Z,-0.30
2023-03-30T05:41:14.339Z,-0.30
2023-03-30T05:43:41.568Z,-0.30
2023-03-30T05:46:08.936Z,-0.30
2023-03-30T05:48:36.200Z,-0.30
2023-03-30T05:51:03.686Z,-0.20
2023-03-30T05:53:31.269Z,-0.20
2023-03-30T05:55:58.469Z,-0.20
2023-03-30T05:58:25.653Z,-0.10
2023-03-30T06:00:54.478Z,-0.10
2023-03-30T06:03:21.873Z,0.00
2023-03-30T06:05:49.359Z,-0.10
2023-03-30T06:08:16.570Z,0.00
2023-03-30T06:10:56.056Z,0.00
2023-03-30T06:13:24.193Z,0.00
2023-03-30T06:15:54.491Z,0.00
2023-03-30T06:18:21.811Z,0.10
2023-03-30T06:20:49.446Z,0.10
2023-03-30T06:23:17.056Z,0.10
2023-03-30T06:25:53.230Z,0.20
2023-03-30T06:28:21.328Z,0.20
2023-03-30T06:30:49.547Z,0.20
2023-03-30T06:33:17.920Z,0.10
2023-03-30T06:35:49.684Z,0.10
2023-03-30T06:38:18.176Z,0.10
2023-03-30T06:40:46.145Z,0.10
2023-03-30T06:43:26.844Z,0.10
2023-03-30T06:45:55.076Z,0.10
2023-03-30T06:48:27.007Z,0.10
2023-03-30T06:50:55.161Z,0.10
2023-03-30T06:53:24.016Z,0.10
2023-03-30T06:55:57.263Z,0.10
2023-03-30T06:58:27.472Z,0.20
2023-03-30T07:00:55.679Z,0.10
2023-03-30T07:03:23.354Z,0.20
2023-03-30T07:05:52.663Z,0.20
2023-03-30T07:08:20.447Z,0.20
2023-03-30T07:10:48.689Z,0.20
2023-03-30T07:13:17.195Z,0.30
2023-03-30T07:15:45.884Z,0.30
2023-03-30T07:18:13.645Z,0.30
2023-03-30T07:20:41.105Z,0.40
2023-03-30T07:23:08.827Z,0.40
2023-03-30T07:25:36.104Z,0.50
2023-03-30T07:28:06.593Z,0.50
2023-03-30T07:30:35.235Z,0.60
2023-03-30T07:33:03.070Z,0.70
2023-03-30T07:35:30.556Z,0.70
2023-03-30T07:38:03.332Z,0.80
2023-03-30T07:40:31.483Z,0.80
2023-03-30T07:42:59.159Z,0.80
2023-03-30T07:45:26.489Z,0.90
2023-03-30T07:47:53.658Z,1.00
2023-03-30T07:50:21.726Z,1.00
2023-03-30T07:52:53.914Z,1.10
2023-03-30T07:55:21.319Z,1.20
2023-03-30T07:57:48.524Z,1.40
2023-03-30T08:00:16.173Z,1.50
2023-03-30T08:02:45.007Z,1.60
2023-03-30T08:05:12.552Z,1.70
2023-03-30T08:07:39.879Z,1.80
2023-03-30T08:10:08.423Z,2.00
2023-03-30T08:12:35.686Z,2.10
2023-03-30T08:15:03.720Z,2.20
2023-03-30T08:17:31.422Z,2.20
2023-03-30T08:19:58.552Z,2.30
2023-03-30T08:22:25.840Z,2.30
2023-03-30T08:24:53.022Z,2.30
2023-03-30T08:27:20.213Z,2.40
2023-03-30T08:29:47.549Z,2.30
2023-03-30T08:32:14.892Z,2.40
2023-03-30T08:34:42.091Z,2.40
2023-03-30T08:37:09.368Z,2.40
2023-03-30T08:39:37.844Z,2.40
2023-03-30T08:42:26.496Z,2.40
2023-03-30T08:44:56.719Z,2.30
2023-03-30T08:47:42.053Z,2.20
2023-03-30T08:50:19.326Z,2.10
2023-03-30T08:52:47.375Z,2.10
2023-03-30T08:55:36.470Z,2.10
2023-03-30T08:58:11.653Z,2.10
2023-03-30T09:00:49.628Z,2.10
2023-03-30T09:03:40.605Z,2.10
2023-03-30T09:06:35.172Z,2.10
2023-03-30T09:09:02.465Z,2.10
2023-03-30T09:11:33.858Z,2.10
2023-03-30T09:14:04.811Z,2.10
2023-03-30T09:16:56.819Z,2.20
2023-03-30T09:19:35.441Z,2.30
2023-03-30T09:22:06.192Z,2.30
2023-03-30T09:24:34.782Z,2.40
2023-03-30T09:27:16.333Z,2.40
2023-03-30T09:29:48.093Z,2.50
2023-03-30T09:32:32.440Z,2.60
2023-03-30T09:35:09.390Z,2.60
2023-03-30T09:37:37.021Z,2.60
2023-03-30T09:40:37.083Z,2.70
2023-03-30T09:43:16.706Z,2.90
2023-03-30T09:45:45.501Z,2.90
2023-03-30T09:48:16.470Z,2.90
2023-03-30T09:50:46.183Z,3.00
2023-03-30T09:53:27.942Z,3.10
2023-03-30T09:56:33.644Z,3.00
2023-03-30T09:59:19.824Z,3.00
2023-03-30T10:01:47.368Z,3.00
2023-03-30T10:04:16.599Z,3.00
2023-03-30T10:06:47.728Z,3.00
2023-03-30T10:09:16.009Z,3.10
2023-03-30T10:11:49.483Z,3.20
2023-03-30T10:14:36.325Z,3.20
2023-03-30T10:17:05.348Z,3.20
2023-03-30T10:19:36.287Z,3.20
2023-03-30T10:22:19.150Z,3.20
2023-03-30T10:24:53.288Z,3.20
2023-03-30T10:27:25.857Z,3.10
2023-03-30T10:29:53.079Z,3.00
2023-03-30T10:32:31.979Z,3.00
2023-03-30T10:35:02.203Z,2.90
2023-03-30T10:37:39.660Z,2.90
2023-03-30T10:40:17.962Z,2.80
2023-03-30T10:42:47.458Z,2.80
2023-03-30T10:45:20.041Z,2.80
2023-03-30T10:48:01.696Z,2.90
2023-03-30T10:50:46.696Z,2.90
2023-03-30T10:53:32.230Z,3.00
2023-03-30T10:56:26.678Z,3.10
2023-03-30T10:59:28.295Z,3.20
2023-03-30T11:02:32.465Z,3.20
2023-03-30T11:05:09.737Z,3.20
2023-03-30T11:08:00.243Z,3.30
2023-03-30T11:10:32.273Z,3.30
2023-03-30T11:12:59.353Z,3.30
2023-03-30T11:15:52.406Z,3.40
2023-03-30T11:18:19.688Z,3.40
2023-03-30T11:20:53.188Z,3.40
2023-03-30T11:23:31.068Z,3.40
2023-03-30T11:26:03.902Z,3.40
2023-03-30T11:28:46.598Z,3.40
2023-03-30T11:31:30.044Z,3.50
2023-03-30T11:34:21.941Z,3.60
2023-03-30T11:37:00.911Z,3.80
2023-03-30T11:39:34.720Z,4.00
2023-03-30T11:42:11.046Z,4.30
2023-03-30T11:44:38.509Z,4.60
2023-03-30T11:47:22.644Z,4.80
2023-03-30T11:50:23.362Z,5.10
2023-03-30T11:52:53.581Z,5.20
2023-03-30T11:55:28.376Z,5.40
2023-03-30T11:58:47.335Z,5.50
2023-03-30T12:01:46.865Z,5.40
2023-03-30T12:04:22.507Z,5.20
2023-03-30T12:07:02.407Z,5.10
2023-03-30T12:09:50.631Z,5.00
2023-03-30T12:12:24.494Z,5.00
2023-03-30T12:15:00.415Z,4.80
2023-03-30T12:17:30.610Z,4.60
2023-03-30T12:20:31.503Z,4.50
2023-03-30T12:23:19.857Z,4.50
2023-03-30T12:26:11.305Z,4.40
2023-03-30T12:31:17.528Z,4.60
2023-03-30T12:33:51.702Z,4.70
2023-03-30T12:36:49.600Z,4.70
2023-03-30T12:39:26.369Z,4.70
2023-03-30T12:42:04.806Z,4.70
2023-03-30T12:45:03.165Z,4.60
2023-03-30T12:47:55.091Z,4.60
2023-03-30T12:50:25.200Z,4.70
2023-03-30T12:53:13.145Z,4.60
2023-03-30T12:55:52.483Z,4.70
2023-03-30T12:58:40.525Z,4.70
2023-03-30T13:01:32.246Z,4.60
2023-03-30T13:04:09.343Z,4.60
2023-03-30T13:06:48.339Z,4.60
2023-03-30T13:09:15.632Z,4.60
2023-03-30T13:12:07.131Z,4.70
2023-03-30T13:14:38.906Z,4.70
2023-03-30T13:17:21.649Z,4.80
2023-03-30T13:20:15.436Z,4.70
2023-03-30T13:22:53.748Z,4.70
2023-03-30T13:25:20.939Z,4.60
2023-03-30T13:27:51.346Z,4.50
2023-03-30T13:30:19.128Z,4.50
2023-03-30T13:33:11.824Z,4.50
2023-03-30T13:35:55.521Z,4.40
2023-03-30T13:38:56.827Z,4.30
2023-03-30T13:41:42.108Z,4.30
2023-03-30T13:44:24.184Z,4.30
2023-03-30T13:47:39.578Z,4.20
2023-03-30T13:50:26.298Z,4.30
2023-03-30T13:52:57.772Z,4.30
2023-03-30T13:55:24.857Z,4.30
2023-03-30T13:58:17.832Z,4.20
2023-03-30T14:01:01.436Z,4.20
2023-03-30T14:03:49.317Z,4.20
2023-03-30T14:06:28.176Z,4.30
2023-03-30T14:09:13.262Z,4.20
2023-03-30T14:11:45.658Z,4.20
2023-03-30T14:14:39.617Z,4.20
2023-03-30T14:17:22.083Z,4.20
2023-03-30T14:20:19.757Z,4.20
2023-03-30T14:22:48.957Z,4.10
2023-03-30T14:25:33.652Z,4.20
2023-03-30T14:28:19.454Z,4.20
2023-03-30T14:30:56.162Z,4.20
2023-03-30T14:33:23.995Z,4.20
2023-03-30T14:35:56.809Z,4.10
2023-03-30T14:38:37.656Z,4.10
2023-03-30T14:41:31.740Z,4.10
2023-03-30T14:44:07.167Z,4.10
2023-03-30T14:46:49.002Z,4.10
2023-03-30T14:49:29.015Z,4.10
2023-03-30T14:52:15.119Z,4.10
2023-03-30T14:54:51.341Z,4.10
2023-03-30T14:57:23.750Z,4.10
2023-03-30T14:59:59.040Z,4.10
2023-03-30T15:02:32.548Z,4.10
2023-03-30T15:05:00.373Z,4.20
2023-03-30T15:07:32.203Z,4.20
2023-03-30T15:10:00.608Z,4.20
2023-03-30T15:12:36.058Z,4.20
2023-03-30T15:15:06.997Z,4.20
2023-03-30T15:17:36.686Z,4.20
2023-03-30T15:20:08.150Z,4.20
2023-03-30T15:22:38.032Z,4.10
2023-03-30T15:25:19.572Z,4.20
2023-03-30T15:28:07.993Z,4.20
2023-03-30T15:30:40.712Z,4.20
2023-03-30T15:33:29.712Z,4.20
2023-03-30T15:35:57.057Z,4.20
2023-03-30T15:38:36.476Z,4.10
2023-03-30T15:41:09.102Z,4.10
2023-03-30T15:43:38.523Z,4.10
2023-03-30T15:46:11.052Z,4.00
2023-03-30T15:48:46.317Z,4.00
2023-03-30T15:51:29.398Z,3.90
2023-03-30T15:54:19.720Z,3.90
2023-03-30T15:57:01.764Z,3.90
2023-03-30T15:59:36.573Z,3.80
2023-03-30T16:02:21.736Z,3.80
2023-03-30T16:04:49.818Z,3.80
2023-03-30T16:07:20.243Z,3.70
2023-03-30T16:09:47.699Z,3.70
2023-03-30T16:12:25.433Z,3.70
2023-03-30T16:14:53.179Z,3.70
2023-03-30T16:17:20.557Z,3.70
2023-03-30T16:19:47.712Z,3.70
2023-03-30T16:22:15.911Z,3.70
2023-03-30T16:24:43.686Z,3.70
2023-03-30T16:27:12.200Z,3.60
2023-03-30T16:29:39.722Z,3.60
2023-03-30T16:32:06.915Z,3.60
2023-03-30T16:34:33.961Z,3.60
2023-03-30T16:37:02.141Z,3.50
2023-03-30T16:39:30.755Z,3.50
2023-03-30T16:42:00.804Z,3.50
2023-03-30T16:44:28.063Z,3.40
2023-03-30T16:46:55.105Z,3.40
2023-03-30T16:49:25.062Z,3.30
2023-03-30T16:51:55.323Z,3.30
2023-03-30T16:54:32.065Z,3.30
2023-03-30T16:57:01.889Z,3.20
2023-03-30T16:59:30.899Z,3.20
2023-03-30T17:01:58.660Z,3.10
2023-03-30T17:04:26.838Z,3.10
2023-03-30T17:06:55.094Z,3.00
2023-03-30T17:09:22.401Z,3.00
2023-03-30T17:11:50.468Z,2.90
2023-03-30T17:14:18.100Z,2.90
2023-03-30T17:16:45.265Z,2.90
2023-03-30T17:19:14.072Z,2.80
2023-03-30T17:21:46.118Z,2.80
2023-03-30T17:24:15.403Z,2.70
2023-03-30T17:26:43.093Z,2.70
2023-03-30T17:29:10.951Z,2.60
2023-03-30T17:31:39.110Z,2.60
2023-03-30T17:34:07.444Z,2.50
2023-03-30T17:36:35.150Z,2.50
2023-03-30T17:39:05.288Z,2.40
2023-03-30T17:41:33.899Z,2.40
2023-03-30T17:44:01.072Z,2.40
2023-03-30T17:46:28.516Z,2.40
2023-03-30T17:48:55.739Z,2.40
2023-03-30T17:51:22.894Z,2.40
2023-03-30T17:53:50.095Z,2.40
2023-03-30T17:56:17.173Z,2.50
2023-03-30T17:58:44.282Z,2.40
2023-03-30T18:01:13.232Z,2.40
2023-03-30T18:03:40.874Z,2.40
2023-03-30T18:06:08.216Z,2.40
2023-03-30T18:08:36.335Z,2.40
2023-03-30T18:11:04.620Z,2.40
2023-03-30T18:13:32.557Z,2.50
2023-03-30T18:16:04.377Z,2.40
2023-03-30T18:18:31.686Z,2.40
2023-03-30T18:21:03.473Z,2.40
2023-03-30T18:23:33.337Z,2.40
2023-03-30T18:26:01.714Z,2.40
2023-03-30T18:28:31.196Z,2.40
2023-03-30T18:30:58.715Z,2.40
2023-03-30T18:33:27.400Z,2.40
2023-03-30T18:35:57.140Z,2.40
2023-03-30T18:38:25.814Z,2.40
2023-03-30T18:40:58.583Z,2.40
2023-03-30T18:43:28.898Z,2.40
2023-03-30T18:46:00.812Z,2.40
2023-03-30T18:48:28.796Z,2.40
2023-03-30T18:50:57.386Z,2.40
2023-03-30T18:53:26.821Z,2.40
2023-03-30T18:56:00.947Z,2.40
2023-03-30T18:58:33.960Z,2.40
2023-03-30T19:01:01.839Z,2.40
2023-03-30T19:03:30.402Z,2.40
2023-03-30T19:05:57.842Z,2.40
2023-03-30T19:08:26.874Z,2.40
2023-03-30T19:10:56.391Z,2.40
2023-03-30T19:13:25.521Z,2.40
2023-03-30T19:15:53.730Z,2.40
2023-03-30T19:18:21.944Z,2.40
2023-03-30T19:20:51.141Z,2.40
2023-03-30T19:23:19.278Z,2.40
2023-03-30T19:25:46.639Z,2.40
2023-03-30T19:28:15.488Z,2.40
2023-03-30T19:30:43.930Z,2.40
2023-03-30T19:33:20.190Z,2.30
2023-03-30T19:35:47.696Z,2.40
2023-03-30T19:38:16.047Z,2.40
2023-03-30T19:40:43.694Z,2.40
2023-03-30T19:43:11.069Z,2.40
2023-03-30T19:45:39.012Z,2.40
2023-03-30T19:48:06.354Z,2.40
2023-03-30T19:50:34.320Z,2.40
2023-03-30T19:53:01.905Z,2.40
2023-03-30T19:55:29.178Z,2.40
2023-03-30T19:57:57.004Z,2.30
2023-03-30T20:00:24.236Z,2.30
2023-03-30T20:02:53.531Z,2.30
2023-03-30T20:05:23.270Z,2.30
2023-03-30T20:07:51.416Z,2.30
2023-03-30T20:10:25.277Z,2.30
2023-03-30T20:12:53.139Z,2.30
2023-03-30T20:15:22.576Z,2.20
2023-03-30T20:17:50.380Z,2.30
2023-03-30T20:20:22.936Z,2.20
2023-03-30T20:22:53.689Z,2.20
2023-03-30T20:25:21.945Z,2.20
2023-03-30T20:27:49.530Z,2.20
2023-03-30T20:30:17.191Z,2.20
2023-03-30T20:32:50.419Z,2.20
2023-03-30T20:35:25.773Z,2.20
2023-03-30T20:37:53.128Z,2.20
2023-03-30T20:40:21.202Z,2.10
2023-03-30T20:42:48.599Z,2.10
2023-03-30T20:45:17.799Z,2.10
2023-03-30T20:47:51.779Z,2.10
2023-03-30T20:50:18.983Z,2.10
2023-03-30T20:52:46.547Z,2.10
2023-03-30T20:55:14.258Z,2.10
2023-03-30T20:57:41.389Z,2.10
2023-03-30T21:00:09.699Z,2.10
2023-03-30T21:02:37.082Z,2.10
2023-03-30T21:05:04.584Z,2.10
2023-03-30T21:07:31.977Z,2.10
2023-03-30T21:09:59.224Z,2.10
2023-03-30T21:12:26.432Z,2.10
2023-03-30T21:14:53.760Z,2.10
2023-03-30T21:17:21.177Z,2.10
2023-03-30T21:19:48.260Z,2.10
2023-03-30T21:22:15.436Z,2.10
2023-03-30T21:24:42.712Z,2.20
2023-03-30T21:27:09.901Z,2.20
2023-03-30T21:29:37.075Z,2.20
2023-03-30T21:32:04.346Z,2.20
2023-03-30T21:34:31.627Z,2.20
2023-03-30T21:36:58.969Z,2.20
2023-03-30T21:39:26.173Z,2.20
2023-03-30T21:41:53.423Z,2.20
2023-03-30T21:44:20.796Z,2.20
2023-03-30T21:46:47.971Z,2.20
2023-03-30T21:49:15.116Z,2.20
2023-03-30T21:51:42.382Z,2.20
2023-03-30T21:54:10.280Z,2.20
2023-03-30T21:56:37.463Z,2.20
2023-03-30T21:59:04.733Z,2.20
2023-03-30T22:01:32.066Z,2.20
2023-03-30T22:03:59.433Z,2.20
2023-03-30T22:06:28.574Z,2.20
2023-03-30T22:08:55.851Z,2.30
2023-03-30T22:11:26.330Z,2.30
2023-03-30T22:13:55.483Z,2.20
2023-03-30T22:16:26.122Z,2.30
2023-03-30T22:18:53.342Z,2.30
2023-03-30T22:21:26.298Z,2.20
2023-03-30T22:23:54.996Z,2.20
2023-03-30T22:26:22.534Z,2.20
2023-03-30T22:28:49.722Z,2.20
2023-03-30T22:31:17.087Z,2.20
2023-03-30T22:33:44.938Z,2.20
2023-03-30T22:36:21.686Z,2.20
2023-03-30T22:38:50.089Z,2.20
2023-03-30T22:41:18.991Z,2.20
2023-03-30T22:43:46.975Z,2.20
2023-03-30T22:46:15.801Z,2.20
2023-03-30T22:48:43.031Z,2.20
2023-03-30T22:51:14.464Z,2.20
2023-03-30T22:53:41.815Z,2.20
2023-03-30T22:56:09.128Z,2.20
2023-03-30T22:58:36.596Z,2.20
2023-03-30T23:01:07.277Z,2.20
2023-03-30T23:03:34.637Z,2.20
2023-03-30T23:06:02.073Z,2.30
2023-03-30T23:08:30.229Z,2.30
2023-03-30T23:11:04.559Z,2.30
2023-03-30T23:13:38.411Z,2.30
2023-03-30T23:16:07.188Z,2.30
2023-03-30T23:18:35.393Z,2.30
2023-03-30T23:21:07.185Z,2.20
2023-03-30T23:23:38.019Z,2.20
2023-03-30T23:26:09.418Z,2.20
2023-03-30T23:28:42.242Z,2.20
2023-03-30T23:31:13.917Z,2.20
2023-03-30T23:33:42.242Z,2.20
2023-03-30T23:36:13.668Z,2.20
2023-03-30T23:38:41.818Z,2.20
2023-03-30T23:41:09.792Z,2.30
2023-03-30T23:43:36.991Z,2.30
2023-03-30T23:46:04.647Z,2.30
2023-03-30T23:48:32.823Z,2.30
2023-03-30T23:51:00.108Z,2.30
2023-03-30T23:53:27.361Z,2.20
2023-03-30T23:55:55.049Z,2.30
2023-03-30T23:58:22.383Z,2.30
